Nautic — A8HQ3 — position and weather

sailwx.info

Track history (hours):
 
Tides and Currents Weather Stations Pressure Air Temp Water Temp Dewpoint Dewpoint Depression Visibility Wind Speed Wind Dir Waves Ship Positions

Nautic

Last reported at 2018-Mar-29 20:09 UTC. Time now 2018-Apr-23 00:07 UTC.
Position N 16°50' E 067°22'.
Warning: this ship's position is 24 days out of date.

Length 274 m; draft 8.5 m.

Type: Tanker. MMSI: 636012754.

Date/timePositionNaut miles runAvg speedWind from/ knotsBaromVisibWave heightAir tempDewpointWater temp
2018-Mar-29 20:09N 16°50' E 067°22'212.4
2018-Mar-29 20:00N 16°49' E 067°23'7012.6
2018-Mar-29 14:29N 16°02' E 068°17'612.4
2018-Mar-29 14:00N 15°58' E 068°22'912.5
2018-Mar-29 13:19N 15°52' E 068°28'912.6
2018-Mar-29 12:37N 15°46' E 068°35'112.8
2018-Mar-29 12:30N 15°45' E 068°36'612.8
2018-Mar-29 12:00N 15°41' E 068°41'612.4
2018-Mar-29 11:30N 15°37' E 068°46'612.4
2018-Mar-29 11:00N 15°32' E 068°50'612.1
2018-Mar-29 10:30N 15°28' E 068°55'712.1
2018-Mar-29 09:58N 15°24' E 068°60'611.9
2018-Mar-29 09:27N 15°20' E 069°04'612.1
2018-Mar-29 09:00N 15°16' E 069°09'612.2
2018-Mar-29 08:29N 15°12' E 069°14'912.0
2018-Mar-29 07:43N 15°06' E 069°21'312.1
2018-Mar-29 07:30N 15°04' E 069°23'3313.4
2018-Mar-29 05:03N 14°42' E 069°48'113.7
2018-Mar-29 04:59N 14°41' E 069°48'612.5
2018-Mar-29 04:29N 14°37' E 069°53'611.9
2018-Mar-29 03:57N 14°32' E 069°58'1311.9
2018-Mar-29 02:51N 14°24' E 070°08'1811.9
2018-Mar-29 01:21N 14°12' E 070°22'3211.8
2018-Mar-28 22:37N 13°50' E 070°46'4011.9
2018-Mar-28 19:17N 13°23' E 071°16'2311.9
2018-Mar-28 17:18N 13°07' E 071°34'411.9
2018-Mar-28 16:58N 13°04' E 071°37'511.8
2018-Mar-28 16:31N 13°01' E 071°41'811.9
2018-Mar-28 15:51N 12°55' E 071°47'  
Track history (hours):
 
Tides and Currents Weather Stations Pressure Air Temp Water Temp Dewpoint Dewpoint Depression Visibility Wind Speed Wind Dir Waves Ship Positions

Nautic

Last reported at 2018-Mar-29 20:09 UTC. Time now 2018-Apr-23 00:07 UTC.
Position N 16°50' E 067°22'.
Warning: this ship's position is 24 days out of date.

Length 274 m; draft 8.5 m.

Type: Tanker. MMSI: 636012754.

Date/timePositionNaut miles runAvg speedWind from/ knotsBaromVisibWave heightAir tempDewpointWater temp
2018-Mar-29 20:09N 16°50' E 067°22'212.4
2018-Mar-29 20:00N 16°49' E 067°23'7012.6
2018-Mar-29 14:29N 16°02' E 068°17'612.4
2018-Mar-29 14:00N 15°58' E 068°22'912.5
2018-Mar-29 13:19N 15°52' E 068°28'912.6
2018-Mar-29 12:37N 15°46' E 068°35'112.8
2018-Mar-29 12:30N 15°45' E 068°36'612.8
2018-Mar-29 12:00N 15°41' E 068°41'612.4
2018-Mar-29 11:30N 15°37' E 068°46'612.4
2018-Mar-29 11:00N 15°32' E 068°50'612.1
2018-Mar-29 10:30N 15°28' E 068°55'712.1
2018-Mar-29 09:58N 15°24' E 068°60'611.9
2018-Mar-29 09:27N 15°20' E 069°04'612.1
2018-Mar-29 09:00N 15°16' E 069°09'612.2
2018-Mar-29 08:29N 15°12' E 069°14'912.0
2018-Mar-29 07:43N 15°06' E 069°21'312.1
2018-Mar-29 07:30N 15°04' E 069°23'3313.4
2018-Mar-29 05:03N 14°42' E 069°48'113.7
2018-Mar-29 04:59N 14°41' E 069°48'612.5
2018-Mar-29 04:29N 14°37' E 069°53'611.9
2018-Mar-29 03:57N 14°32' E 069°58'1311.9
2018-Mar-29 02:51N 14°24' E 070°08'1811.9
2018-Mar-29 01:21N 14°12' E 070°22'3211.8
2018-Mar-28 22:37N 13°50' E 070°46'4011.9
2018-Mar-28 19:17N 13°23' E 071°16'2311.9
2018-Mar-28 17:18N 13°07' E 071°34'411.9
2018-Mar-28 16:58N 13°04' E 071°37'511.8
2018-Mar-28 16:31N 13°01' E 071°41'811.9
2018-Mar-28 15:51N 12°55' E 071°47'  

Dump ship's entire track history